TFFR/PTP METAR and TAF weather

Enter ICAO airport designator
Station Type Date Time Source
TFFR METAR 2019/02/18 04:00 UTC NOAA

TFFR 180400Z AUTO VRB01KT 9999 FEW030 SCT036 BKN043 21/19 Q1019


Station Type Date Time Source
TFFR Decoded METAR 2019/02/18 04:00 UTC NOAA

Le Raizet, Guadeloupe, Guadeloupe (TFFR) 16-16N 061-31W 11M
Feb 17, 2019 - 11:00 PM EST / 2019.02.18 0400 UTC
Wind: Variable at 1 MPH (1 KT):0
Visibility: greater than 7 mile(s):0
Sky conditions: mostly cloudy
Temperature: 69 F (21 C)
Dew Point: 66 F (19 C)
Relative Humidity: 88%
Pressure (altimeter): 30.09 in. Hg (1019 hPa)
ob: TFFR 180400Z AUTO VRB01KT 9999 FEW030 SCT036 BKN043 21/19 Q1019
cycle: 4

Station Type Date Time Source
TFFR TAF 2019/02/17 22:57 UTC NOAA

TAF
AMD TFFR 172254Z 1722/1818 CNL


Example: see airport list